Latest Weather Observations for Broome

IDW60801

Issued at 3:02 pm WST Wednesday 25 May 2016 (issued every 30 minutes, with the page automatically refreshed every 10 minutes)

About weather observations | Map of weather stations | Latest weather observations for WA | Other Formats
Station Details ID: 003003 Name: BROOME AIRPORT Lat: -17.95 Lon: 122.24 Height: 7.42 m
Data from the previous 72 hours. | See also: Recent months at Broome
Date/Time
WST
Temp
°C
App
Temp
°C
Dew
Point
Rel
Hum
%
Delta-T
°C
Wind Press
QNH
hPa
Press
MSL
hPa
Rain
since 9 am
mm
Dir
 
Spd
km/h
Gust
km/h
Spd
kts
Gust
kts
25/03:00pm 29.7 29.0 17.4 47 7.8 WSW 17 22 9 12 1011.1 1011.0 0.0
25/02:30pm 30.1 29.9 18.6 50 7.4 W 17 20 9 11 1011.0 - 0.0
25/02:00pm 30.6 30.6 18.1 47 8.0 W 15 19 8 10 1011.1 - 0.0
25/01:30pm 31.0 31.0 18.1 46 8.3 W 15 17 8 9 1011.2 - 0.0
25/01:00pm 30.8 30.9 18.4 47 8.0 W 15 20 8 11 1011.6 - 0.0
25/12:30pm 30.6 30.7 15.6 40 9.3 S 9 13 5 7 1012.1 - 0.0
25/12:00pm 30.4 30.7 14.9 39 9.5 S 7 13 4 7 1012.6 1012.5 0.0
25/11:30am 29.5 29.8 15.9 43 8.4 ESE 9 11 5 6 1013.3 - 0.0
25/11:00am 29.1 29.8 16.2 45 8.0 SSE 7 11 4 6 1013.7 - 0.0
25/10:30am 28.4 29.3 16.7 49 7.3 SE 7 11 4 6 1013.8 - 0.0
25/10:00am 27.2 28.6 17.3 54 6.2 SSE 6 9 3 5 1014.1 - 0.0
25/09:30am 26.2 27.2 17.8 60 5.3 SSE 9 11 5 6 1014.3 - 0.0
25/09:00am 25.5 26.6 18.0 63 4.7 SSE 9 13 5 7 1014.3 1014.2 0.0
25/08:30am 24.9 26.0 18.1 66 4.3 SSE 9 13 5 7 1014.1 - 0.0
25/08:00am 24.5 25.6 18.0 67 4.1 SSE 9 17 5 9 1013.9 - 0.0
25/07:30am 21.9 25.4 19.5 86 1.5 CALM 0 0 0 0 1013.7 - 0.0
25/07:00am 20.6 24.0 19.3 92 0.8 CALM 0 0 0 0 1013.6 - 0.0
25/06:30am 19.4 22.6 18.8 96 0.4 CALM 0 0 0 0 1013.3 - 0.0
25/06:00am 19.4 22.6 18.8 96 0.4 CALM 0 0 0 0 1013.1 1013.0 0.0
25/05:30am 19.5 22.8 19.0 97 0.3 CALM 0 0 0 0 1012.9 - 0.0
25/05:00am 19.7 22.8 18.7 94 0.6 CALM 0 0 0 0 1012.7 - 0.0
25/04:30am 22.3 25.8 19.6 85 1.7 CALM 0 0 0 0 1012.5 - 0.0
25/04:00am 20.2 23.6 19.4 95 0.5 CALM 0 0 0 0 1012.3 - 0.0
25/03:30am 19.9 23.1 18.8 93 0.7 CALM 0 0 0 0 1012.3 - 0.0
25/03:00am 21.2 23.7 19.9 92 0.8 SSE 6 7 3 4 1012.2 1012.1 0.0
25/02:30am 22.0 25.4 20.9 93 0.7 S 4 6 2 3 1012.2 - 0.0
25/02:00am 21.6 24.9 20.7 95 0.6 S 4 6 2 3 1012.5 - 0.0
25/01:30am 21.3 25.2 20.4 95 0.6 CALM 0 0 0 0 1012.8 - 0.0
25/01:00am 21.1 24.9 20.2 95 0.6 CALM 0 0 0 0 1013.0 - 0.0
25/12:30am 21.0 24.8 20.1 95 0.6 CALM 0 0 0 0 1013.0 - 0.0
25/12:00am 20.8 24.4 19.7 93 0.7 CALM 0 0 0 0 1013.0 1012.9 0.0
 
Date/Time
WST
Temp
°C
App
Temp
°C
Dew
Point
Rel
Hum
%
Delta-T
°C
Wind Press
QNH
hPa
Press
MSL
hPa
Rain
since 9 am
mm
Dir
 
Spd
km/h
Gust
km/h
Spd
kts
Gust
kts
24/11:30pm 21.4 24.1 20.2 93 0.8 N 6 6 3 3 1013.2 - 0.0
24/11:00pm 21.0 23.2 19.7 92 0.8 NNE 7 9 4 5 1013.2 - 0.0
24/10:30pm 21.7 25.5 20.1 91 1.0 CALM 0 0 0 0 1013.3 - 0.0
24/10:00pm 23.3 26.9 21.2 88 1.4 WSW 4 7 2 4 1013.2 - 0.0
24/09:30pm 22.7 26.8 20.7 88 1.3 CALM 0 0 0 0 1013.4 - 0.0
24/09:00pm 25.0 28.2 21.2 79 2.5 SSW 6 9 3 5 1013.5 1013.4 0.0
24/08:30pm 25.3 27.8 21.0 77 2.8 SW 9 13 5 7 1013.6 - 0.0
24/08:00pm 25.5 27.6 20.9 75 3.0 WSW 11 15 6 8 1013.6 - 0.0
24/07:30pm 25.6 27.3 21.0 75 3.0 SW 13 15 7 8 1013.3 - 0.0
24/07:00pm 25.6 27.7 21.0 75 3.0 SW 11 15 6 8 1013.1 - 0.0
24/06:30pm 25.9 27.7 21.1 75 3.2 WSW 13 17 7 9 1012.8 - 0.0
24/06:00pm 26.0 27.7 21.0 74 3.3 WSW 13 19 7 10 1012.6 1012.5 0.0
24/05:30pm 26.2 27.6 21.1 73 3.4 WSW 15 19 8 10 1012.4 - 0.0
24/05:00pm 27.0 27.8 20.6 68 4.2 WSW 17 20 9 11 1012.2 - 0.0
24/04:30pm 27.5 27.9 20.7 66 4.5 WSW 19 26 10 14 1012.2 - 0.0
24/04:00pm 28.0 28.2 20.2 62 5.1 WSW 19 22 10 12 1012.2 - 0.0
24/03:30pm 28.8 29.2 18.9 55 6.4 WSW 15 19 8 10 1012.1 - 0.0
24/03:00pm 28.8 28.2 17.6 50 7.1 W 17 20 9 11 1011.9 1011.8 0.0
24/02:30pm 29.2 28.3 16.9 47 7.7 W 17 22 9 12 1011.8 - 0.0
24/02:00pm 29.6 28.7 15.9 43 8.5 W 15 19 8 10 1011.8 - 0.0
24/01:30pm 29.8 28.5 14.7 39 9.2 W 15 20 8 11 1012.2 - 0.0
24/01:00pm 29.8 30.2 16.3 44 8.4 WSW 9 15 5 8 1012.5 - 0.0
24/12:30pm 28.3 29.0 18.8 56 6.1 SSE 13 19 7 10 1012.8 - 0.0
24/12:00pm 27.5 29.1 19.1 60 5.4 SSE 9 15 5 8 1013.2 1013.1 0.0
24/11:30am 27.2 28.7 18.9 60 5.3 S 9 13 5 7 1013.6 - 0.0
24/11:00am 26.3 27.9 19.1 64 4.6 S 9 13 5 7 1013.9 - 0.0
24/10:30am 25.4 27.0 19.2 68 4.0 ESE 9 15 5 8 1014.2 - 0.0
24/10:00am 24.5 26.0 19.0 71 3.5 SSE 9 13 5 7 1014.7 - 0.0
24/09:30am 24.0 25.1 18.8 72 3.3 SE 11 13 6 7 1015.0 - 0.0
24/09:00am 23.0 23.6 18.6 76 2.8 SE 13 17 7 9 1015.0 1014.9 0.0
24/08:30am 22.5 23.1 18.7 79 2.4 ESE 13 17 7 9 1015.0 - 0.0
24/08:00am 21.5 22.5 18.6 83 1.8 SE 11 17 6 9 1015.1 - 0.0
24/07:30am 20.7 21.3 18.5 87 1.4 ESE 13 19 7 10 1014.8 - 0.0
24/07:00am 20.2 21.4 18.3 89 1.2 ESE 9 13 5 7 1014.4 - 0.0
24/06:30am 19.3 20.4 18.0 92 0.8 ESE 9 11 5 6 1014.2 - 0.0
24/06:00am 19.0 19.7 17.9 93 0.7 ESE 11 13 6 7 1014.1 1014.0 0.0
24/05:30am 18.7 19.8 17.9 95 0.5 ESE 9 13 5 7 1013.8 - 0.0
24/05:00am 18.7 19.7 17.7 94 0.6 ESE 9 11 5 6 1013.7 - 0.0
24/04:30am 18.8 19.8 17.8 94 0.6 E 9 11 5 6 1013.6 - 0.0
24/04:00am 19.0 19.7 18.0 94 0.6 E 11 13 6 7 1013.5 - 0.0
24/03:30am 19.2 20.0 18.1 93 0.7 E 11 13 6 7 1013.4 - 0.0
24/03:00am 19.7 20.1 18.1 90 1.0 E 13 15 7 8 1013.5 1013.4 0.0
24/02:30am 20.2 20.6 18.1 88 1.3 ESE 13 15 7 8 1013.4 - 0.0
24/02:00am 20.2 21.0 18.1 88 1.3 ESE 11 13 6 7 1013.3 - 0.0
24/01:30am 20.1 21.3 18.2 89 1.2 E 9 13 5 7 1013.4 - 0.0
24/01:00am 20.0 21.2 18.2 89 1.1 ENE 9 13 5 7 1013.6 - 0.0
24/12:30am 20.0 20.8 18.2 89 1.1 E 11 13 6 7 1013.8 - 0.0
24/12:00am 20.3 21.9 18.2 88 1.3 E 7 11 4 6 1014.1 1014.0 0.0
 
Date/Time
WST
Temp
°C
App
Temp
°C
Dew
Point
Rel
Hum
%
Delta-T
°C
Wind Press
QNH
hPa
Press
MSL
hPa
Rain
since 9 am
mm
Dir
 
Spd
km/h
Gust
km/h
Spd
kts
Gust
kts
23/11:30pm 20.5 21.3 18.1 86 1.5 E 11 15 6 8 1014.4 - 0.0
23/11:00pm 20.7 21.5 18.1 85 1.6 E 11 13 6 7 1014.7 - 0.0
23/10:30pm 20.9 22.1 18.2 84 1.7 E 9 13 5 7 1015.1 - 0.0
23/10:00pm 21.2 22.0 18.1 82 1.9 E 11 13 6 7 1015.1 - 0.0
23/09:30pm 21.6 22.4 18.1 80 2.2 E 11 15 6 8 1015.3 - 0.0
23/09:00pm 22.1 22.4 17.9 77 2.6 ESE 13 15 7 8 1015.2 1015.1 0.0
23/08:30pm 22.2 22.9 18.0 77 2.6 E 11 15 6 8 1015.1 - 0.0
23/08:00pm 22.7 22.9 17.7 73 3.1 E 13 20 7 11 1014.9 - 0.0
23/07:30pm 23.1 22.9 17.6 71 3.4 E 15 20 8 11 1014.8 - 0.0
23/07:00pm 23.3 23.5 17.7 71 3.5 E 13 20 7 11 1014.8 - 0.0
23/06:30pm 23.8 23.2 17.5 68 3.9 E 17 28 9 15 1014.5 - 0.0
23/06:00pm 24.4 23.7 17.3 64 4.4 E 17 24 9 13 1014.3 1014.2 0.0
23/05:30pm 25.1 23.8 16.7 59 5.2 E 19 26 10 14 1014.1 - 0.0
23/05:00pm 26.0 24.1 16.6 56 5.8 E 22 33 12 18 1013.7 - 0.0
23/04:30pm 26.8 24.1 16.6 53 6.3 E 26 37 14 20 1013.3 - 0.0
23/04:00pm 27.4 23.9 16.4 51 6.8 E 30 41 16 22 1013.3 - 0.0
23/03:30pm 27.8 24.8 16.7 50 6.9 E 28 39 15 21 1013.1 - 0.0
23/03:00pm 27.8 25.5 17.5 53 6.5 E 26 35 14 19 1013.1 1013.0 0.0
23/02:30pm 28.8 27.1 18.1 52 6.8 E 24 35 13 19 1013.0 - 0.0
23/02:00pm 29.7 28.3 18.7 51 7.1 E 24 35 13 19 1013.0 - 0.0
23/01:30pm 29.6 28.4 19.3 54 6.7 E 24 32 13 17 1012.9 - 0.0
23/01:00pm 29.8 28.2 20.1 56 6.4 E 28 39 15 21 1013.3 - 0.0
23/12:30pm 29.0 28.0 19.7 57 6.1 E 24 33 13 18 1013.6 - 0.0
23/12:00pm 29.1 28.1 19.6 56 6.2 E 24 39 13 21 1013.9 1013.8 0.0
23/11:30am 28.8 27.4 19.6 57 6.0 E 26 35 14 19 1014.4 - 0.0
23/11:00am 28.5 27.1 19.6 58 5.8 E 26 37 14 20 1014.4 - 0.0
23/10:30am 28.1 26.5 19.1 58 5.8 E 26 37 14 20 1014.5 - 0.0
23/10:00am 27.7 27.1 20.6 65 4.7 E 24 35 13 19 1015.0 - 0.0
23/09:30am 26.6 26.4 20.5 69 4.0 E 22 30 12 16 1015.0 - 0.0
23/09:00am 26.0 26.0 21.0 74 3.3 ESE 22 32 12 17 1015.3 1015.2 1.4
23/08:30am 25.0 26.3 21.7 82 2.2 ESE 17 24 9 13 1015.2 - 1.2
23/08:00am 24.6 25.6 21.1 81 2.3 ESE 17 24 9 13 1014.9 - 1.2
23/07:30am 23.7 24.2 20.9 84 1.8 ESE 19 24 10 13 1014.5 - 1.2
23/07:00am 23.6 24.1 20.8 84 1.8 SE 19 26 10 14 1014.6 - 1.2
23/06:30am 23.7 24.6 20.8 84 1.9 SE 17 24 9 13 1014.1 - 1.2
23/06:00am 23.3 24.9 20.8 86 1.6 ESE 13 19 7 10 1014.1 1014.0 1.2
23/05:30am 23.8 24.9 20.4 81 2.2 SE 15 22 8 12 1013.7 - 1.2
23/05:00am 24.1 24.7 20.2 79 2.5 SSE 17 20 9 11 1013.8 - 1.2
23/04:30am 24.3 25.8 20.5 79 2.5 S 13 19 7 10 1013.8 - 1.2
23/04:00am 24.5 26.4 20.5 78 2.6 S 11 17 6 9 1013.6 - 1.2
23/03:30am 24.4 26.8 20.9 81 2.3 S 9 11 5 6 1013.8 - 1.2
23/03:00am 24.2 26.7 21.0 82 2.1 S 9 13 5 7 1013.7 1013.6 1.2
23/02:30am 22.9 27.5 21.7 93 0.8 CALM 0 0 0 0 1013.9 - 1.2
23/02:00am 22.6 27.2 21.7 95 0.6 CALM 0 0 0 0 1014.0 - 1.2
23/01:30am 22.1 25.4 21.5 96 0.4 ENE 6 7 3 4 1013.7 - 1.2
23/01:00am 22.5 26.7 21.7 95 0.5 E 2 7 1 4 1014.0 - 1.2
23/12:30am 22.8 26.4 22.0 95 0.5 NE 6 7 3 4 1014.2 - 1.2
23/12:00am 22.8 25.8 21.9 95 0.6 ENE 9 11 5 6 1014.2 1014.1 1.2
 
Date/Time
WST
Temp
°C
App
Temp
°C
Dew
Point
Rel
Hum
%
Delta-T
°C
Wind Press
QNH
hPa
Press
MSL
hPa
Rain
since 9 am
mm
Dir
 
Spd
km/h
Gust
km/h
Spd
kts
Gust
kts
22/11:30pm 22.8 26.2 21.7 93 0.7 N 6 7 3 4 1014.1 - 1.2
22/11:00pm 22.7 26.1 21.6 93 0.7 NE 6 7 3 4 1014.3 - 1.2
22/10:30pm 22.7 26.1 21.6 93 0.7 E 6 7 3 4 1014.2 - 1.2
22/10:00pm 22.7 25.9 21.6 93 0.7 E 7 9 4 5 1013.9 - 1.2
22/09:30pm 22.8 26.2 21.7 93 0.7 E 6 7 3 4 1014.1 - 1.2
22/09:00pm 22.7 25.9 21.6 93 0.7 E 7 11 4 6 1013.7 1013.6 1.2
22/08:30pm 22.9 26.4 22.1 95 0.5 NNE 7 9 4 5 1014.0 - 1.2
22/08:00pm 23.3 26.4 22.1 93 0.8 E 9 11 5 6 1013.7 - 1.2
22/07:30pm 23.2 25.7 21.7 91 1.0 E 11 17 6 9 1013.6 - 1.2
22/07:00pm 23.5 25.4 21.4 88 1.4 SE 13 17 7 9 1013.5 - 1.2
22/06:30pm 23.5 25.4 21.4 88 1.4 SE 13 19 7 10 1013.4 - 1.2
22/06:00pm 22.7 23.9 21.5 93 0.8 ESE 17 22 9 12 1013.4 1013.3 1.2
22/05:30pm 22.3 24.4 21.7 96 0.4 E 13 17 7 9 1013.8 - 1.2
22/05:00pm 22.2 23.5 21.6 96 0.4 NNE 17 22 9 12 1014.0 - 1.0
22/04:30pm 23.0 24.4 21.9 93 0.7 N 17 26 9 14 1013.7 - 0.0
22/04:00pm 24.6 25.9 21.6 83 2.0 N 17 24 9 13 1013.2 - 0.0
22/03:30pm 25.0 25.2 21.4 80 2.4 NNW 22 32 12 17 1012.8 - 0.0

Other Formats:

Comma delimited format used in spreadsheet applications
http://www.bom.gov.au/fwo/IDW60801/IDW60801.94203.axf

JavaScript Object Notation format (JSON) in row-major order
http://www.bom.gov.au/fwo/IDW60801/IDW60801.94203.json